sensor_id;sensor_type;location;lat;lon;timestamp;pressure;altitude;pressure_sealevel;temperature;humidity
74895;BME280;63447;49.446;8.666;2022-12-17T00:02:06;100950.75;;;-6.00;75.83
74895;BME280;63447;49.446;8.666;2022-12-17T00:04:55;100952.41;;;-5.99;75.47
74895;BME280;63447;49.446;8.666;2022-12-17T00:07:39;100938.13;;;-6.06;76.04
74895;BME280;63447;49.446;8.666;2022-12-17T00:10:23;100946.41;;;-6.08;75.59
74895;BME280;63447;49.446;8.666;2022-12-17T00:13:17;100934.00;;;-6.16;75.74
74895;BME280;63447;49.446;8.666;2022-12-17T00:16:01;100914.00;;;-6.33;75.56
74895;BME280;63447;49.446;8.666;2022-12-17T00:18:45;100960.03;;;-6.09;75.02
74895;BME280;63447;49.446;8.666;2022-12-17T00:21:30;100954.66;;;-6.09;75.94
74895;BME280;63447;49.446;8.666;2022-12-17T00:24:14;100958.59;;;-6.12;75.74
74895;BME280;63447;49.446;8.666;2022-12-17T00:26:58;100952.59;;;-6.21;75.45
74895;BME280;63447;49.446;8.666;2022-12-17T00:29:42;100941.88;;;-6.27;75.25
74895;BME280;63447;49.446;8.666;2022-12-17T00:32:28;100950.13;;;-6.22;75.58
74895;BME280;63447;49.446;8.666;2022-12-17T00:35:13;100925.16;;;-6.42;75.10
74895;BME280;63447;49.446;8.666;2022-12-17T00:37:59;100956.34;;;-6.28;75.36
74895;BME280;63447;49.446;8.666;2022-12-17T00:40:43;100967.88;;;-6.21;75.39
74895;BME280;63447;49.446;8.666;2022-12-17T00:43:27;100977.38;;;-6.19;75.17
74895;BME280;63447;49.446;8.666;2022-12-17T00:46:14;100966.47;;;-6.24;75.81
74895;BME280;63447;49.446;8.666;2022-12-17T00:49:00;100980.50;;;-6.15;75.77
74895;BME280;63447;49.446;8.666;2022-12-17T00:51:44;100974.28;;;-6.16;75.91
74895;BME280;63447;49.446;8.666;2022-12-17T00:54:28;100970.81;;;-6.29;75.32
74895;BME280;63447;49.446;8.666;2022-12-17T00:57:14;100980.72;;;-6.30;76.10
74895;BME280;63447;49.446;8.666;2022-12-17T00:59:58;100968.31;;;-6.37;76.22
74895;BME280;63447;49.446;8.666;2022-12-17T01:02:50;100984.00;;;-6.34;76.60
74895;BME280;63447;49.446;8.666;2022-12-17T01:05:36;100979.88;;;-6.43;76.58
74895;BME280;63447;49.446;8.666;2022-12-17T01:08:21;100963.78;;;-6.57;76.61
74895;BME280;63447;49.446;8.666;2022-12-17T01:11:06;100973.06;;;-6.53;76.22
74895;BME280;63447;49.446;8.666;2022-12-17T01:13:54;100999.91;;;-6.39;76.41
74895;BME280;63447;49.446;8.666;2022-12-17T01:16:38;101012.72;;;-6.41;77.19
74895;BME280;63447;49.446;8.666;2022-12-17T01:19:22;101005.47;;;-6.47;77.33
74895;BME280;63447;49.446;8.666;2022-12-17T01:22:06;101007.31;;;-6.48;76.93
74895;BME280;63447;49.446;8.666;2022-12-17T01:24:52;101008.78;;;-6.52;76.78
74895;BME280;63447;49.446;8.666;2022-12-17T01:31:09;101009.41;;;-6.50;75.80
74895;BME280;63447;49.446;8.666;2022-12-17T01:34:23;101028.63;;;-6.40;76.07
74895;BME280;63447;49.446;8.666;2022-12-17T01:37:15;101005.69;;;-6.56;76.05
74895;BME280;63447;49.446;8.666;2022-12-17T01:39:59;101001.53;;;-6.65;76.99
74895;BME280;63447;49.446;8.666;2022-12-17T01:42:53;101027.97;;;-6.55;76.94
74895;BME280;63447;49.446;8.666;2022-12-17T01:45:41;101012.66;;;-6.68;76.07
74895;BME280;63447;49.446;8.666;2022-12-17T01:48:36;101051.09;;;-6.47;75.92
74895;BME280;63447;49.446;8.666;2022-12-17T01:51:20;101051.31;;;-6.49;76.17
74895;BME280;63447;49.446;8.666;2022-12-17T01:54:07;101043.03;;;-6.61;75.63
74895;BME280;63447;49.446;8.666;2022-12-17T01:56:58;101044.28;;;-6.63;75.83
74895;BME280;63447;49.446;8.666;2022-12-17T02:00:03;101059.13;;;-6.61;76.38
74895;BME280;63447;49.446;8.666;2022-12-17T02:02:48;101039.09;;;-6.65;76.01
74895;BME280;63447;49.446;8.666;2022-12-17T02:05:44;101048.19;;;-6.59;76.40
74895;BME280;63447;49.446;8.666;2022-12-17T02:12:01;101061.59;;;-6.66;76.06
74895;BME280;63447;49.446;8.666;2022-12-17T02:18:01;101067.34;;;-6.75;76.52
74895;BME280;63447;49.446;8.666;2022-12-17T02:20:50;101068.78;;;-6.73;76.74
74895;BME280;63447;49.446;8.666;2022-12-17T02:29:49;101070.66;;;-6.73;77.06
74895;BME280;63447;49.446;8.666;2022-12-17T02:32:41;101064.88;;;-6.77;76.89
74895;BME280;63447;49.446;8.666;2022-12-17T02:35:45;101067.97;;;-6.80;76.39
74895;BME280;63447;49.446;8.666;2022-12-17T02:38:32;101076.84;;;-6.79;75.99
74895;BME280;63447;49.446;8.666;2022-12-17T02:41:18;101062.34;;;-6.92;75.61
74895;BME280;63447;49.446;8.666;2022-12-17T02:44:09;101073.34;;;-6.80;75.80
74895;BME280;63447;49.446;8.666;2022-12-17T02:46:55;101054.25;;;-6.98;75.26
74895;BME280;63447;49.446;8.666;2022-12-17T02:49:39;101079.31;;;-6.78;75.12
74895;BME280;63447;49.446;8.666;2022-12-17T02:52:23;101086.13;;;-6.82;75.78
74895;BME280;63447;49.446;8.666;2022-12-17T02:55:11;101077.00;;;-6.88;76.38
74895;BME280;63447;49.446;8.666;2022-12-17T02:57:55;101079.25;;;-6.91;76.43
74895;BME280;63447;49.446;8.666;2022-12-17T03:00:39;101087.50;;;-6.93;75.78
74895;BME280;63447;49.446;8.666;2022-12-17T03:03:25;101100.25;;;-7.01;75.95
74895;BME280;63447;49.446;8.666;2022-12-17T03:06:10;101103.16;;;-7.03;75.98
74895;BME280;63447;49.446;8.666;2022-12-17T03:08:56;101095.06;;;-7.09;76.15
74895;BME280;63447;49.446;8.666;2022-12-17T03:11:40;101106.66;;;-7.02;76.39
74895;BME280;63447;49.446;8.666;2022-12-17T03:14:24;101101.50;;;-6.97;75.89
74895;BME280;63447;49.446;8.666;2022-12-17T03:17:08;101103.75;;;-7.07;76.12
74895;BME280;63447;49.446;8.666;2022-12-17T03:19:52;101114.03;;;-7.11;76.45
74895;BME280;63447;49.446;8.666;2022-12-17T03:22:36;101114.78;;;-7.24;76.04
74895;BME280;63447;49.446;8.666;2022-12-17T03:25:20;101118.28;;;-7.30;76.65
74895;BME280;63447;49.446;8.666;2022-12-17T03:28:09;101129.00;;;-7.30;77.14
74895;BME280;63447;49.446;8.666;2022-12-17T03:31:10;101121.72;;;-7.36;76.94
74895;BME280;63447;49.446;8.666;2022-12-17T03:33:54;101109.16;;;-7.35;77.01
74895;BME280;63447;49.446;8.666;2022-12-17T03:36:40;101117.00;;;-7.34;76.64
74895;BME280;63447;49.446;8.666;2022-12-17T03:39:24;101125.69;;;-7.25;76.83
74895;BME280;63447;49.446;8.666;2022-12-17T03:42:11;101136.66;;;-7.20;76.60
74895;BME280;63447;49.446;8.666;2022-12-17T03:44:58;101130.88;;;-7.24;76.67
74895;BME280;63447;49.446;8.666;2022-12-17T03:47:44;101130.47;;;-7.21;76.60
74895;BME280;63447;49.446;8.666;2022-12-17T03:50:31;101123.63;;;-7.30;76.83
74895;BME280;63447;49.446;8.666;2022-12-17T03:53:17;101126.72;;;-7.26;76.49
74895;BME280;63447;49.446;8.666;2022-12-17T03:56:01;101099.59;;;-7.44;76.68
74895;BME280;63447;49.446;8.666;2022-12-17T03:58:45;101129.41;;;-7.26;75.85
74895;BME280;63447;49.446;8.666;2022-12-17T04:01:29;101138.91;;;-7.24;76.21
74895;BME280;63447;49.446;8.666;2022-12-17T04:04:17;101142.63;;;-7.25;76.68
74895;BME280;63447;49.446;8.666;2022-12-17T04:07:01;101144.91;;;-7.22;76.62
74895;BME280;63447;49.446;8.666;2022-12-17T04:09:51;101146.13;;;-7.24;76.52
74895;BME280;63447;49.446;8.666;2022-12-17T04:12:48;101153.69;;;-7.34;76.39
74895;BME280;63447;49.446;8.666;2022-12-17T04:15:35;101151.03;;;-7.34;76.11
74895;BME280;63447;49.446;8.666;2022-12-17T04:18:19;101140.63;;;-7.44;76.58
74895;BME280;63447;49.446;8.666;2022-12-17T04:21:05;101137.50;;;-7.54;77.39
74895;BME280;63447;49.446;8.666;2022-12-17T04:23:50;101155.25;;;-7.46;78.02
74895;BME280;63447;49.446;8.666;2022-12-17T04:26:37;101162.00;;;-7.29;77.72
74895;BME280;63447;49.446;8.666;2022-12-17T04:29:21;101142.16;;;-7.35;77.66
74895;BME280;63447;49.446;8.666;2022-12-17T04:32:07;101157.22;;;-7.34;77.72
74895;BME280;63447;49.446;8.666;2022-12-17T04:34:51;101154.53;;;-7.34;76.83
74895;BME280;63447;49.446;8.666;2022-12-17T04:37:35;101177.06;;;-7.28;76.56
74895;BME280;63447;49.446;8.666;2022-12-17T04:40:21;101167.94;;;-7.34;76.66
74895;BME280;63447;49.446;8.666;2022-12-17T04:43:12;101158.00;;;-7.40;75.96
74895;BME280;63447;49.446;8.666;2022-12-17T04:45:57;101158.38;;;-7.43;75.70
74895;BME280;63447;49.446;8.666;2022-12-17T04:48:41;101161.50;;;-7.39;76.14
74895;BME280;63447;49.446;8.666;2022-12-17T04:51:28;101169.16;;;-7.36;76.10
74895;BME280;63447;49.446;8.666;2022-12-17T04:54:12;101160.22;;;-7.43;76.06
74895;BME280;63447;49.446;8.666;2022-12-17T04:56:56;101147.38;;;-7.55;76.54
74895;BME280;63447;49.446;8.666;2022-12-17T04:59:43;101170.34;;;-7.67;76.81
74895;BME280;63447;49.446;8.666;2022-12-17T05:02:27;101183.09;;;-7.69;78.76
74895;BME280;63447;49.446;8.666;2022-12-17T05:05:11;101177.84;;;-7.83;80.83
74895;BME280;63447;49.446;8.666;2022-12-17T05:07:58;101182.19;;;-7.82;81.00
74895;BME280;63447;49.446;8.666;2022-12-17T05:10:42;101196.25;;;-7.74;81.05
74895;BME280;63447;49.446;8.666;2022-12-17T05:13:29;101174.78;;;-7.80;81.03
74895;BME280;63447;49.446;8.666;2022-12-17T05:16:18;101190.25;;;-7.76;81.81
74895;BME280;63447;49.446;8.666;2022-12-17T05:19:02;101181.81;;;-7.73;81.20
74895;BME280;63447;49.446;8.666;2022-12-17T05:21:49;101199.69;;;-7.59;80.10
74895;BME280;63447;49.446;8.666;2022-12-17T05:24:33;101192.88;;;-7.61;79.25
74895;BME280;63447;49.446;8.666;2022-12-17T05:27:17;101217.91;;;-7.47;79.72
74895;BME280;63447;49.446;8.666;2022-12-17T05:30:01;101189.69;;;-7.71;80.87
74895;BME280;63447;49.446;8.666;2022-12-17T05:32:45;101206.50;;;-7.77;82.58
74895;BME280;63447;49.446;8.666;2022-12-17T05:35:31;101217.00;;;-7.82;82.91
74895;BME280;63447;49.446;8.666;2022-12-17T05:38:18;101218.50;;;-7.73;83.56
74895;BME280;63447;49.446;8.666;2022-12-17T05:41:05;101222.72;;;-7.64;82.68
74895;BME280;63447;49.446;8.666;2022-12-17T05:43:54;101210.72;;;-7.68;81.62
74895;BME280;63447;49.446;8.666;2022-12-17T05:46:43;101222.28;;;-7.68;82.16
74895;BME280;63447;49.446;8.666;2022-12-17T05:49:30;101235.75;;;-7.61;80.99
74895;BME280;63447;49.446;8.666;2022-12-17T05:52:14;101225.22;;;-7.63;80.33
74895;BME280;63447;49.446;8.666;2022-12-17T05:54:58;101237.59;;;-7.62;80.86
74895;BME280;63447;49.446;8.666;2022-12-17T05:57:44;101248.13;;;-7.81;80.01
74895;BME280;63447;49.446;8.666;2022-12-17T06:00:31;101239.94;;;-7.95;82.44
74895;BME280;63447;49.446;8.666;2022-12-17T06:03:15;101247.19;;;-8.10;82.75
74895;BME280;63447;49.446;8.666;2022-12-17T06:05:59;101251.91;;;-8.12;83.71
74895;BME280;63447;49.446;8.666;2022-12-17T06:08:43;101258.91;;;-8.11;85.03
74895;BME280;63447;49.446;8.666;2022-12-17T06:11:27;101273.53;;;-7.92;83.82
74895;BME280;63447;49.446;8.666;2022-12-17T06:14:13;101232.06;;;-8.17;83.99
74895;BME280;63447;49.446;8.666;2022-12-17T06:16:57;101273.19;;;-8.04;84.68
74895;BME280;63447;49.446;8.666;2022-12-17T06:19:41;101283.91;;;-8.04;83.34
74895;BME280;63447;49.446;8.666;2022-12-17T06:22:28;101278.53;;;-8.04;83.25
74895;BME280;63447;49.446;8.666;2022-12-17T06:25:12;101284.81;;;-7.97;84.17
74895;BME280;63447;49.446;8.666;2022-12-17T06:27:59;101307.09;;;-7.75;83.74
74895;BME280;63447;49.446;8.666;2022-12-17T06:30:51;101297.03;;;-7.73;83.03
74895;BME280;63447;49.446;8.666;2022-12-17T06:33:35;101309.59;;;-7.52;82.54
74895;BME280;63447;49.446;8.666;2022-12-17T06:36:19;101284.59;;;-7.59;83.45
74895;BME280;63447;49.446;8.666;2022-12-17T06:39:08;101299.78;;;-7.45;82.05
74895;BME280;63447;49.446;8.666;2022-12-17T06:41:52;101287.97;;;-7.50;81.39
74895;BME280;63447;49.446;8.666;2022-12-17T06:44:39;101297.47;;;-7.48;82.32
74895;BME280;63447;49.446;8.666;2022-12-17T06:47:25;101294.75;;;-7.33;82.13
74895;BME280;63447;49.446;8.666;2022-12-17T06:50:09;101319.88;;;-7.13;82.15
74895;BME280;63447;49.446;8.666;2022-12-17T06:53:01;101286.44;;;-7.17;81.50
74895;BME280;63447;49.446;8.666;2022-12-17T06:55:45;101304.72;;;-6.99;81.97
74895;BME280;63447;49.446;8.666;2022-12-17T06:58:30;101318.25;;;-6.86;81.06
74895;BME280;63447;49.446;8.666;2022-12-17T07:01:14;101325.66;;;-6.88;80.09
74895;BME280;63447;49.446;8.666;2022-12-17T07:03:58;101306.38;;;-6.98;80.46
74895;BME280;63447;49.446;8.666;2022-12-17T07:06:42;101336.72;;;-6.76;79.83
74895;BME280;63447;49.446;8.666;2022-12-17T07:09:26;101347.84;;;-6.73;80.47
74895;BME280;63447;49.446;8.666;2022-12-17T07:12:10;101355.13;;;-6.67;80.56
74895;BME280;63447;49.446;8.666;2022-12-17T07:14:54;101340.31;;;-6.63;79.71
74895;BME280;63447;49.446;8.666;2022-12-17T07:17:41;101330.72;;;-6.72;80.12
74895;BME280;63447;49.446;8.666;2022-12-17T07:20:25;101364.91;;;-6.59;80.56
74895;BME280;63447;49.446;8.666;2022-12-17T07:23:08;101366.50;;;-6.65;80.56
74895;BME280;63447;49.446;8.666;2022-12-17T07:25:52;101366.38;;;-6.57;80.35
74895;BME280;63447;49.446;8.666;2022-12-17T07:28:36;101355.06;;;-6.73;81.46
74895;BME280;63447;49.446;8.666;2022-12-17T07:31:20;101338.94;;;-6.80;80.44
74895;BME280;63447;49.446;8.666;2022-12-17T07:34:04;101375.63;;;-6.59;80.56
74895;BME280;63447;49.446;8.666;2022-12-17T07:36:48;101383.19;;;-6.69;80.10
74895;BME280;63447;49.446;8.666;2022-12-17T07:39:32;101372.41;;;-6.76;81.56
74895;BME280;63447;49.446;8.666;2022-12-17T07:42:16;101396.09;;;-6.58;81.36
74895;BME280;63447;49.446;8.666;2022-12-17T07:45:00;101387.13;;;-6.65;81.22
74895;BME280;63447;49.446;8.666;2022-12-17T07:47:51;101398.91;;;-6.66;80.10
74895;BME280;63447;49.446;8.666;2022-12-17T07:50:35;101409.91;;;-6.82;83.79
74895;BME280;63447;49.446;8.666;2022-12-17T07:53:22;101379.06;;;-6.93;82.70
74895;BME280;63447;49.446;8.666;2022-12-17T07:56:06;101410.91;;;-6.62;81.48
74895;BME280;63447;49.446;8.666;2022-12-17T07:58:54;101420.13;;;-6.43;82.49
74895;BME280;63447;49.446;8.666;2022-12-17T08:01:39;101417.44;;;-6.71;81.57
74895;BME280;63447;49.446;8.666;2022-12-17T08:04:23;101415.34;;;-6.48;83.03
74895;BME280;63447;49.446;8.666;2022-12-17T08:07:07;101395.16;;;-6.44;82.00
74895;BME280;63447;49.446;8.666;2022-12-17T08:09:53;101415.44;;;-6.07;80.72
74895;BME280;63447;49.446;8.666;2022-12-17T08:15:38;101421.50;;;-5.98;80.05
74895;BME280;63447;49.446;8.666;2022-12-17T08:18:46;101390.91;;;-6.32;79.29
74895;BME280;63447;49.446;8.666;2022-12-17T08:21:34;101406.00;;;-6.31;79.97
74895;BME280;63447;49.446;8.666;2022-12-17T08:24:26;101433.38;;;-6.14;78.17
74895;BME280;63447;49.446;8.666;2022-12-17T08:27:19;101395.19;;;-6.65;79.68
74895;BME280;63447;49.446;8.666;2022-12-17T08:30:24;101430.44;;;-6.47;80.53
74895;BME280;63447;49.446;8.666;2022-12-17T08:33:08;101308.66;;;-7.44;79.59
74895;BME280;63447;49.446;8.666;2022-12-17T08:35:56;101458.34;;;-6.41;80.57
74895;BME280;63447;49.446;8.666;2022-12-17T08:38:59;101381.25;;;-7.03;80.67
74895;BME280;63447;49.446;8.666;2022-12-17T08:45:19;101213.59;;;-8.12;80.79
74895;BME280;63447;49.446;8.666;2022-12-17T08:48:04;101320.78;;;-7.48;79.71
74895;BME280;63447;49.446;8.666;2022-12-17T09:01:42;101495.28;;;-6.22;81.11
74895;BME280;63447;49.446;8.666;2022-12-17T09:12:05;101497.75;;;-5.99;80.86
74895;BME280;63447;49.446;8.666;2022-12-17T09:15:18;101505.53;;;-5.76;79.01
74895;BME280;63447;49.446;8.666;2022-12-17T09:28:41;101296.84;;;-7.50;79.83
74895;BME280;63447;49.446;8.666;2022-12-17T09:31:42;101500.44;;;-5.99;80.45
74895;BME280;63447;49.446;8.666;2022-12-17T09:34:26;101498.88;;;-5.81;79.18
74895;BME280;63447;49.446;8.666;2022-12-17T09:37:10;101499.94;;;-5.75;78.55
74895;BME280;63447;49.446;8.666;2022-12-17T09:39:54;101513.78;;;-5.71;77.89
74895;BME280;63447;49.446;8.666;2022-12-17T09:42:50;101497.09;;;-5.67;78.34
74895;BME280;63447;49.446;8.666;2022-12-17T09:58:19;101511.69;;;-5.48;79.25
74895;BME280;63447;49.446;8.666;2022-12-17T10:01:04;101491.25;;;-5.70;77.75
74895;BME280;63447;49.446;8.666;2022-12-17T10:03:51;101508.50;;;-5.58;78.91
74895;BME280;63447;49.446;8.666;2022-12-17T10:06:38;101522.66;;;-5.43;79.28
74895;BME280;63447;49.446;8.666;2022-12-17T10:09:22;101487.97;;;-5.72;79.57
74895;BME280;63447;49.446;8.666;2022-12-17T10:12:15;101481.81;;;-5.60;78.36
74895;BME280;63447;49.446;8.666;2022-12-17T10:15:01;101533.34;;;-5.56;79.50
74895;BME280;63447;49.446;8.666;2022-12-17T10:17:46;101523.38;;;-5.62;78.63
74895;BME280;63447;49.446;8.666;2022-12-17T10:20:35;101499.34;;;-5.70;78.34
74895;BME280;63447;49.446;8.666;2022-12-17T10:23:29;101500.22;;;-5.63;78.34
74895;BME280;63447;49.446;8.666;2022-12-17T10:26:33;101531.75;;;-5.44;79.14
74895;BME280;63447;49.446;8.666;2022-12-17T10:32:17;101522.25;;;-5.47;78.51
74895;BME280;63447;49.446;8.666;2022-12-17T10:35:33;101532.69;;;-5.24;78.52
74895;BME280;63447;49.446;8.666;2022-12-17T10:38:28;101484.06;;;-5.29;77.30
74895;BME280;63447;49.446;8.666;2022-12-17T10:41:33;101526.59;;;-4.98;77.18
74895;BME280;63447;49.446;8.666;2022-12-17T10:44:27;101536.75;;;-4.93;78.69
74895;BME280;63447;49.446;8.666;2022-12-17T10:47:17;101540.94;;;-5.32;77.64
74895;BME280;63447;49.446;8.666;2022-12-17T10:50:07;101538.78;;;-5.50;78.50
74895;BME280;63447;49.446;8.666;2022-12-17T10:52:52;101519.78;;;-5.76;79.39
74895;BME280;63447;49.446;8.666;2022-12-17T10:55:49;101544.22;;;-5.36;79.95
74895;BME280;63447;49.446;8.666;2022-12-17T10:58:46;101552.81;;;-5.20;78.93
74895;BME280;63447;49.446;8.666;2022-12-17T11:01:31;101545.78;;;-5.14;78.35
74895;BME280;63447;49.446;8.666;2022-12-17T11:04:30;101548.25;;;-5.13;77.58
74895;BME280;63447;49.446;8.666;2022-12-17T11:07:23;101559.84;;;-5.12;77.42
74895;BME280;63447;49.446;8.666;2022-12-17T11:10:15;101525.38;;;-5.36;77.86
74895;BME280;63447;49.446;8.666;2022-12-17T11:13:14;101567.19;;;-5.34;78.93
74895;BME280;63447;49.446;8.666;2022-12-17T11:16:00;101560.97;;;-5.34;77.77
74895;BME280;63447;49.446;8.666;2022-12-17T11:22:37;101522.16;;;-5.60;79.03
74895;BME280;63447;49.446;8.666;2022-12-17T11:48:15;101552.38;;;-5.17;79.00
74895;BME280;63447;49.446;8.666;2022-12-17T11:54:44;101560.56;;;-4.90;78.02
74895;BME280;63447;49.446;8.666;2022-12-17T12:01:48;101556.22;;;-4.91;76.92
74895;BME280;63447;49.446;8.666;2022-12-17T12:07:23;101522.66;;;-5.02;78.77
74895;BME280;63447;49.446;8.666;2022-12-17T12:10:25;101543.41;;;-4.83;77.81
74895;BME280;63447;49.446;8.666;2022-12-17T12:13:54;101558.16;;;-4.72;77.18
74895;BME280;63447;49.446;8.666;2022-12-17T12:19:51;101492.28;;;-5.37;78.87
74895;BME280;63447;49.446;8.666;2022-12-17T12:29:05;101556.66;;;-4.81;79.46
74895;BME280;63447;49.446;8.666;2022-12-17T12:34:49;101558.69;;;-4.96;79.63
74895;BME280;63447;49.446;8.666;2022-12-17T12:37:35;101558.06;;;-4.98;78.77
74895;BME280;63447;49.446;8.666;2022-12-17T12:40:36;101531.09;;;-5.12;79.06
74895;BME280;63447;49.446;8.666;2022-12-17T12:43:32;101549.81;;;-5.66;82.35
74895;BME280;63447;49.446;8.666;2022-12-17T12:46:41;101547.00;;;-5.17;81.98
74895;BME280;63447;49.446;8.666;2022-12-17T12:49:53;101534.59;;;-5.11;80.78
74895;BME280;63447;49.446;8.666;2022-12-17T12:52:41;101546.00;;;-5.09;80.29
74895;BME280;63447;49.446;8.666;2022-12-17T12:55:39;101560.31;;;-5.02;80.68
74895;BME280;63447;49.446;8.666;2022-12-17T12:58:30;101558.56;;;-5.23;81.99
74895;BME280;63447;49.446;8.666;2022-12-17T13:01:14;101520.97;;;-5.51;81.44
74895;BME280;63447;49.446;8.666;2022-12-17T13:04:01;101532.03;;;-5.67;83.31
74895;BME280;63447;49.446;8.666;2022-12-17T13:11:47;101534.63;;;-5.52;81.11
74895;BME280;63447;49.446;8.666;2022-12-17T13:14:35;101527.75;;;-5.14;80.75
74895;BME280;63447;49.446;8.666;2022-12-17T13:19:57;101518.66;;;-5.13;79.30
74895;BME280;63447;49.446;8.666;2022-12-17T13:22:29;101506.00;;;-5.19;79.37
74895;BME280;63447;49.446;8.666;2022-12-17T13:25:14;101485.63;;;-5.41;80.87
74895;BME280;63447;49.446;8.666;2022-12-17T13:27:40;101493.47;;;-5.53;79.94
74895;BME280;63447;49.446;8.666;2022-12-17T13:39:10;101533.19;;;-5.07;81.09
74895;BME280;63447;49.446;8.666;2022-12-17T13:41:44;101491.66;;;-5.39;79.56
74895;BME280;63447;49.446;8.666;2022-12-17T13:44:25;101527.19;;;-5.50;81.67
74895;BME280;63447;49.446;8.666;2022-12-17T13:46:54;101502.84;;;-5.35;80.98
74895;BME280;63447;49.446;8.666;2022-12-17T13:49:28;101513.69;;;-5.16;80.13
74895;BME280;63447;49.446;8.666;2022-12-17T13:52:27;101528.25;;;-4.97;79.09
74895;BME280;63447;49.446;8.666;2022-12-17T13:54:53;101540.78;;;-5.24;79.73
74895;BME280;63447;49.446;8.666;2022-12-17T13:57:24;101541.41;;;-5.15;79.41
74895;BME280;63447;49.446;8.666;2022-12-17T13:59:51;101507.59;;;-5.37;80.40
74895;BME280;63447;49.446;8.666;2022-12-17T14:02:30;101551.63;;;-5.04;79.44
74895;BME280;63447;49.446;8.666;2022-12-17T14:04:58;101562.16;;;-5.09;79.39
74895;BME280;63447;49.446;8.666;2022-12-17T14:07:26;101534.78;;;-5.19;79.59
74895;BME280;63447;49.446;8.666;2022-12-17T14:09:54;101553.72;;;-4.99;79.62
74895;BME280;63447;49.446;8.666;2022-12-17T14:12:25;101548.56;;;-4.94;79.42
74895;BME280;63447;49.446;8.666;2022-12-17T14:15:03;101530.09;;;-5.04;79.04
74895;BME280;63447;49.446;8.666;2022-12-17T14:17:36;101552.91;;;-4.87;78.27
74895;BME280;63447;49.446;8.666;2022-12-17T14:22:41;101548.72;;;-5.02;79.09
74895;BME280;63447;49.446;8.666;2022-12-17T14:25:22;101550.69;;;-5.24;80.00
74895;BME280;63447;49.446;8.666;2022-12-17T14:27:56;101559.25;;;-5.07;79.66
74895;BME280;63447;49.446;8.666;2022-12-17T14:32:59;101557.03;;;-4.91;78.14
74895;BME280;63447;49.446;8.666;2022-12-17T14:35:31;101554.53;;;-4.92;78.49
74895;BME280;63447;49.446;8.666;2022-12-17T14:37:58;101546.44;;;-5.05;78.17
74895;BME280;63447;49.446;8.666;2022-12-17T14:40:24;101551.75;;;-5.19;79.74
74895;BME280;63447;49.446;8.666;2022-12-17T14:42:51;101541.81;;;-5.18;79.25
74895;BME280;63447;49.446;8.666;2022-12-17T14:45:23;101559.44;;;-5.09;79.37
74895;BME280;63447;49.446;8.666;2022-12-17T14:47:53;101565.63;;;-5.22;78.91
74895;BME280;63447;49.446;8.666;2022-12-17T14:50:24;101573.50;;;-5.20;78.95
74895;BME280;63447;49.446;8.666;2022-12-17T14:52:54;101578.97;;;-5.35;79.67
74895;BME280;63447;49.446;8.666;2022-12-17T14:55:37;101590.50;;;-5.48;79.83
74895;BME280;63447;49.446;8.666;2022-12-17T15:03:10;101582.56;;;-5.84;81.60
74895;BME280;63447;49.446;8.666;2022-12-17T15:05:40;101601.69;;;-6.00;82.68
74895;BME280;63447;49.446;8.666;2022-12-17T15:08:06;101595.34;;;-5.92;83.33
74895;BME280;63447;49.446;8.666;2022-12-17T15:10:31;101567.63;;;-5.93;82.40
74895;BME280;63447;49.446;8.666;2022-12-17T15:12:59;101594.09;;;-5.62;81.99
74895;BME280;63447;49.446;8.666;2022-12-17T15:15:25;101571.06;;;-5.71;81.63
74895;BME280;63447;49.446;8.666;2022-12-17T15:17:52;101586.81;;;-5.68;80.44
74895;BME280;63447;49.446;8.666;2022-12-17T15:20:22;101587.66;;;-5.67;80.52
74895;BME280;63447;49.446;8.666;2022-12-17T15:22:47;101582.66;;;-5.70;81.70
74895;BME280;63447;49.446;8.666;2022-12-17T15:25:14;101587.25;;;-5.64;81.17
74895;BME280;63447;49.446;8.666;2022-12-17T15:27:41;101601.91;;;-5.67;81.38
74895;BME280;63447;49.446;8.666;2022-12-17T15:30:12;101591.56;;;-5.70;81.23
74895;BME280;63447;49.446;8.666;2022-12-17T15:32:42;101577.84;;;-5.82;80.68
74895;BME280;63447;49.446;8.666;2022-12-17T15:35:12;101584.78;;;-5.94;81.31
74895;BME280;63447;49.446;8.666;2022-12-17T15:37:41;101590.81;;;-5.85;81.24
74895;BME280;63447;49.446;8.666;2022-12-17T15:40:07;101599.53;;;-5.83;81.85
74895;BME280;63447;49.446;8.666;2022-12-17T15:42:34;101617.31;;;-5.82;81.71
74895;BME280;63447;49.446;8.666;2022-12-17T15:45:19;101591.38;;;-5.96;81.40
74895;BME280;63447;49.446;8.666;2022-12-17T15:47:47;101615.19;;;-6.14;82.14
74895;BME280;63447;49.446;8.666;2022-12-17T15:50:15;101600.16;;;-6.09;83.48
74895;BME280;63447;49.446;8.666;2022-12-17T15:52:42;101597.72;;;-6.04;82.62
74895;BME280;63447;49.446;8.666;2022-12-17T15:55:13;101591.63;;;-5.91;82.38
74895;BME280;63447;49.446;8.666;2022-12-17T15:57:42;101596.13;;;-6.20;82.92
74895;BME280;63447;49.446;8.666;2022-12-17T16:00:08;101612.19;;;-6.05;83.07
74895;BME280;63447;49.446;8.666;2022-12-17T16:02:36;101608.97;;;-5.94;82.40
74895;BME280;63447;49.446;8.666;2022-12-17T16:05:02;101611.00;;;-5.96;82.30
74895;BME280;63447;49.446;8.666;2022-12-17T16:07:30;101601.50;;;-5.98;82.76
74895;BME280;63447;49.446;8.666;2022-12-17T16:09:55;101589.03;;;-6.06;82.06
74895;BME280;63447;49.446;8.666;2022-12-17T16:12:23;101589.59;;;-6.10;82.78
74895;BME280;63447;49.446;8.666;2022-12-17T16:14:49;101584.13;;;-6.24;82.68
74895;BME280;63447;49.446;8.666;2022-12-17T16:17:16;101606.38;;;-6.08;82.88
74895;BME280;63447;49.446;8.666;2022-12-17T16:19:44;101594.16;;;-6.11;81.81
74895;BME280;63447;49.446;8.666;2022-12-17T16:22:15;101588.50;;;-6.16;83.23
74895;BME280;63447;49.446;8.666;2022-12-17T16:24:40;101607.28;;;-6.01;81.92
74895;BME280;63447;49.446;8.666;2022-12-17T16:27:08;101600.25;;;-5.96;81.11
74895;BME280;63447;49.446;8.666;2022-12-17T16:29:33;101586.16;;;-6.04;81.74
74895;BME280;63447;49.446;8.666;2022-12-17T16:32:01;101605.34;;;-5.79;81.30
74895;BME280;63447;49.446;8.666;2022-12-17T16:34:28;101609.25;;;-5.82;82.18
74895;BME280;63447;49.446;8.666;2022-12-17T16:36:56;101604.72;;;-5.82;81.61
74895;BME280;63447;49.446;8.666;2022-12-17T16:39:22;101622.97;;;-5.70;83.81
74895;BME280;63447;49.446;8.666;2022-12-17T16:41:47;101608.31;;;-5.68;84.78